Time;durP1;ratioP1;P1;durP2;ratioP2;P2;SDS_P1;SDS_P2;PMS_P1;PMS_P2;Temp;Humidity;BMP_temperature;BMP_pressure;BME280_temperature;BME280_humidity;BME280_pressure;Samples;Min_cycle;Max_cycle;Signal;HPM_P1;HPM_P2
2023/01/01 00:04:18;;;;;;;43.28;25.00;;;11.10;99.90;;;;;;10387050;28;20042;-77
2023/01/01 00:14:38;;;;;;;38.20;20.90;;;11.00;99.90;;;;;;10373477;28;20049;-77
2023/01/01 00:19:39;;;;;;;36.90;20.73;;;11.00;99.90;;;;;;10386182;28;20437;-77
2023/01/01 00:24:39;;;;;;;37.28;21.50;;;11.00;99.90;;;;;;10375338;28;20459;-79
2023/01/01 00:29:40;;;;;;;35.67;19.85;;;11.00;99.90;;;;;;10371411;28;20497;-76
2023/01/01 00:34:40;;;;;;;35.53;19.73;;;11.00;99.90;;;;;;10391952;28;20029;-78
2023/01/01 00:39:41;;;;;;;34.05;18.38;;;10.90;99.90;;;;;;10391989;28;20044;-78
2023/01/01 00:44:41;;;;;;;32.38;17.67;;;10.90;99.90;;;;;;10368388;28;20030;-77
2023/01/01 00:49:42;;;;;;;27.85;14.77;;;10.80;99.90;;;;;;10373318;28;20133;-79
2023/01/01 00:54:43;;;;;;;34.08;18.95;;;10.80;99.90;;;;;;10386850;28;20033;-76
2023/01/01 00:59:43;;;;;;;53.05;25.60;;;10.80;99.90;;;;;;10391529;28;20048;-78
2023/01/01 01:04:44;;;;;;;30.85;16.83;;;10.70;99.90;;;;;;10377674;28;20038;-79
2023/01/01 01:09:45;;;;;;;39.53;19.55;;;10.70;99.90;;;;;;10387704;28;20603;-77
2023/01/01 01:14:46;;;;;;;32.83;17.55;;;10.60;99.90;;;;;;10387923;28;20112;-77
2023/01/01 01:19:46;;;;;;;39.22;19.60;;;10.60;99.90;;;;;;10369897;28;20041;-80
2023/01/01 01:24:47;;;;;;;34.83;17.63;;;10.60;99.90;;;;;;10393448;28;20034;-77
2023/01/01 01:29:47;;;;;;;31.17;17.65;;;10.60;99.90;;;;;;10370217;28;20033;-78
2023/01/01 01:34:48;;;;;;;31.10;15.25;;;10.60;99.90;;;;;;10372831;28;20504;-77
2023/01/01 01:39:48;;;;;;;25.88;15.45;;;10.70;99.90;;;;;;10393352;28;20036;-78
2023/01/01 01:44:53;;;;;;;28.40;15.00;;;10.80;99.90;;;;;;10378934;28;20650;-80
2023/01/01 01:50:00;;;;;;;26.38;15.45;;;10.90;99.90;;;;;;10384250;28;20382;-77
2023/01/01 01:55:04;;;;;;;24.50;14.20;;;10.90;99.90;;;;;;10392853;28;20041;-78
2023/01/01 02:00:06;;;;;;;28.95;15.25;;;11.10;99.90;;;;;;10357871;28;20046;-75
2023/01/01 02:05:07;;;;;;;27.92;14.50;;;11.20;99.90;;;;;;10373912;28;20065;-77
2023/01/01 02:10:08;;;;;;;32.72;18.02;;;11.20;99.90;;;;;;10367020;28;20132;-77
2023/01/01 02:15:09;;;;;;;33.00;16.05;;;11.30;99.90;;;;;;10388829;28;20030;-76
2023/01/01 02:20:51;;;;;;;32.10;15.68;;;11.20;99.90;;;;;;10397754;28;20154;-77
2023/01/01 02:26:20;;;;;;;40.97;21.73;;;11.40;99.90;;;;;;10315135;28;20049;-79
2023/01/01 02:31:33;;;;;;;32.65;16.13;;;11.40;99.90;;;;;;10377191;28;20044;-77
2023/01/01 02:36:36;;;;;;;26.60;14.50;;;11.30;99.90;;;;;;10394187;28;20033;-79
2023/01/01 02:41:44;;;;;;;27.95;14.57;;;11.20;99.90;;;;;;10390923;28;20041;-77
2023/01/01 02:46:44;;;;;;;26.35;12.90;;;11.00;99.90;;;;;;10352252;28;20760;-79
2023/01/01 02:52:01;;;;;;;24.80;12.82;;;10.90;99.90;;;;;;10363411;28;20104;-77
2023/01/01 02:57:31;;;;;;;21.23;11.23;;;10.80;99.90;;;;;;10361695;28;20026;-78
2023/01/01 03:02:47;;;;;;;22.77;11.82;;;10.80;99.90;;;;;;10354028;28;20030;-77
2023/01/01 03:07:57;;;;;;;22.20;11.32;;;10.80;99.90;;;;;;10354597;28;20057;-78
2023/01/01 03:13:24;;;;;;;22.42;11.07;;;10.90;99.90;;;;;;10346295;28;20042;-76
2023/01/01 03:18:31;;;;;;;16.95;10.45;;;10.90;99.90;;;;;;10344868;28;20784;-76
2023/01/01 03:23:39;;;;;;;20.20;10.13;;;11.00;99.90;;;;;;10362528;28;20053;-79
2023/01/01 03:28:53;;;;;;;18.73;10.77;;;11.10;99.90;;;;;;10362968;28;20022;-76
2023/01/01 03:34:05;;;;;;;20.85;11.32;;;11.00;99.90;;;;;;10340727;28;20037;-76
2023/01/01 03:39:20;;;;;;;17.13;9.57;;;11.10;99.90;;;;;;10363464;28;20030;-76
2023/01/01 03:44:33;;;;;;;17.10;9.23;;;11.20;99.90;;;;;;10361912;28;20026;-76
2023/01/01 03:49:34;;;;;;;18.80;9.57;;;11.30;99.90;;;;;;10363084;28;20058;-77
2023/01/01 03:54:44;;;;;;;19.48;10.30;;;11.40;99.90;;;;;;10362114;28;20102;-79
2023/01/01 03:59:56;;;;;;;23.83;11.82;;;11.40;99.90;;;;;;10361845;28;20478;-77
2023/01/01 04:05:00;;;;;;;18.52;10.32;;;11.40;99.90;;;;;;10359963;28;20025;-76
2023/01/01 04:10:15;;;;;;;18.30;9.77;;;11.40;99.90;;;;;;10361508;28;20057;-78
2023/01/01 04:15:18;;;;;;;19.27;10.10;;;11.40;99.90;;;;;;10361950;28;20084;-75
2023/01/01 04:20:20;;;;;;;16.75;9.25;;;11.50;99.90;;;;;;10361171;28;20045;-76
2023/01/01 04:25:20;;;;;;;16.80;8.68;;;11.70;99.90;;;;;;10361227;28;20032;-77
2023/01/01 04:30:21;;;;;;;17.88;8.82;;;11.90;99.90;;;;;;10361035;28;20026;-76
2023/01/01 04:35:21;;;;;;;15.75;7.97;;;12.00;99.90;;;;;;10361190;28;20037;-77
2023/01/01 04:40:22;;;;;;;17.60;7.80;;;12.10;99.90;;;;;;10361362;28;20037;-76
2023/01/01 04:45:22;;;;;;;12.18;7.25;;;12.20;99.90;;;;;;10361105;28;20041;-76
2023/01/01 04:50:23;;;;;;;11.15;5.50;;;12.30;99.90;;;;;;10361511;28;20045;-78
2023/01/01 04:55:23;;;;;;;11.68;5.70;;;12.40;99.00;;;;;;10360733;28;20034;-75
2023/01/01 05:00:24;;;;;;;12.73;7.75;;;12.60;98.20;;;;;;10360852;28;20045;-76
2023/01/01 05:05:25;;;;;;;11.77;6.85;;;12.70;97.40;;;;;;10360703;28;20025;-79
2023/01/01 05:10:25;;;;;;;12.07;6.53;;;12.60;96.80;;;;;;10372053;28;20057;-79
2023/01/01 05:15:26;;;;;;;11.15;6.30;;;12.50;96.80;;;;;;10359661;28;20777;-77
2023/01/01 05:20:26;;;;;;;12.68;7.40;;;12.40;96.80;;;;;;10360084;28;20038;-79
2023/01/01 05:25:27;;;;;;;11.20;6.15;;;12.30;97.00;;;;;;10359566;28;20101;-77
2023/01/01 05:30:28;;;;;;;13.18;6.57;;;12.20;96.70;;;;;;10359844;28;20441;-76
2023/01/01 05:35:28;;;;;;;11.07;6.22;;;12.20;96.40;;;;;;10363887;28;20030;-76
2023/01/01 05:40:29;;;;;;;11.75;6.22;;;12.20;96.70;;;;;;10368310;28;20034;-76
2023/01/01 05:45:29;;;;;;;11.02;6.13;;;12.20;97.20;;;;;;10368180;28;20514;-76
2023/01/01 05:50:30;;;;;;;13.77;6.75;;;12.20;97.00;;;;;;10367272;28;20112;-76
2023/01/01 05:55:30;;;;;;;10.27;5.80;;;12.10;97.00;;;;;;10367095;28;20121;-79
2023/01/01 06:00:31;;;;;;;12.32;6.13;;;12.00;96.90;;;;;;10379021;28;20128;-78
2023/01/01 06:05:34;;;;;;;9.88;5.90;;;12.00;97.50;;;;;;10366799;28;20038;-77
2023/01/01 06:10:34;;;;;;;15.32;6.90;;;11.90;97.60;;;;;;10366487;28;20057;-79
2023/01/01 06:15:35;;;;;;;12.30;6.60;;;11.90;97.70;;;;;;10366486;28;20022;-77
2023/01/01 06:20:35;;;;;;;18.33;9.10;;;11.90;97.70;;;;;;10366235;28;20084;-77
2023/01/01 06:25:36;;;;;;;18.40;10.32;;;11.80;97.90;;;;;;10366095;28;20087;-77
2023/01/01 06:30:37;;;;;;;15.73;7.65;;;11.70;98.10;;;;;;10366722;28;20036;-78
2023/01/01 06:35:37;;;;;;;11.20;6.30;;;11.60;98.50;;;;;;10365856;28;20022;-77
2023/01/01 06:40:38;;;;;;;14.63;7.15;;;11.50;99.00;;;;;;10365548;28;20509;-77
2023/01/01 06:45:38;;;;;;;14.88;6.10;;;11.40;99.60;;;;;;10378735;28;20045;-76
2023/01/01 06:50:39;;;;;;;15.15;7.30;;;11.30;99.90;;;;;;10376926;28;20473;-76
2023/01/01 06:55:46;;;;;;;14.82;7.90;;;11.20;99.90;;;;;;10366716;28;20092;-77
2023/01/01 07:00:47;;;;;;;16.73;8.88;;;11.10;99.90;;;;;;10376337;28;20089;-78
2023/01/01 07:05:47;;;;;;;81.35;37.08;;;11.00;99.90;;;;;;10360607;28;20128;-77
2023/01/01 07:10:48;;;;;;;43.80;24.48;;;11.00;99.90;;;;;;10337359;28;20061;-77
2023/01/01 07:15:48;;;;;;;20.88;10.90;;;11.00;99.90;;;;;;10360875;28;20042;-76
2023/01/01 07:20:54;;;;;;;21.35;11.38;;;10.90;99.90;;;;;;10363787;28;20076;-77
2023/01/01 07:25:55;;;;;;;42.47;17.95;;;10.90;99.90;;;;;;10363092;28;20044;-77
2023/01/01 07:30:56;;;;;;;22.90;10.60;;;11.00;99.90;;;;;;10363995;28;20034;-79
2023/01/01 07:35:56;;;;;;;17.38;8.73;;;11.00;99.90;;;;;;10357029;28;20450;-78
2023/01/01 07:40:57;;;;;;;27.88;14.45;;;11.00;99.90;;;;;;10355629;28;20270;-77
2023/01/01 07:45:58;;;;;;;36.22;16.55;;;10.90;99.90;;;;;;10363130;28;20092;-78
2023/01/01 07:50:59;;;;;;;22.92;11.07;;;10.90;99.90;;;;;;10344095;28;20030;-78
2023/01/01 07:55:59;;;;;;;17.50;8.35;;;10.80;99.90;;;;;;10322453;28;20026;-76
2023/01/01 08:01:00;;;;;;;20.00;9.25;;;10.80;99.90;;;;;;10339720;28;20445;-76
2023/01/01 08:06:12;;;;;;;15.95;8.15;;;10.80;99.90;;;;;;10363053;28;20354;-77
2023/01/01 08:11:12;;;;;;;16.45;8.65;;;10.80;99.90;;;;;;10337511;28;20120;-76
2023/01/01 08:16:13;;;;;;;15.30;8.13;;;10.80;99.90;;;;;;10332788;28;20044;-77
2023/01/01 08:21:13;;;;;;;14.73;7.95;;;10.80;99.90;;;;;;10338480;28;20073;-76
2023/01/01 08:26:16;;;;;;;14.43;7.90;;;10.90;99.90;;;;;;10321384;28;20113;-76
2023/01/01 08:31:16;;;;;;;14.65;7.78;;;11.00;99.90;;;;;;10325412;28;20030;-75
2023/01/01 08:36:18;;;;;;;24.35;10.63;;;11.00;99.90;;;;;;10321376;28;20100;-76
2023/01/01 08:41:19;;;;;;;19.60;10.30;;;11.00;99.90;;;;;;10344174;28;20676;-77
2023/01/01 08:46:19;;;;;;;30.95;14.85;;;10.90;99.90;;;;;;10359866;28;20041;-79
2023/01/01 08:51:20;;;;;;;27.98;14.63;;;11.00;99.90;;;;;;10348840;28;20333;-77
2023/01/01 08:56:20;;;;;;;22.10;10.52;;;11.10;99.90;;;;;;10343306;28;20026;-77
2023/01/01 09:01:21;;;;;;;20.38;11.07;;;11.30;99.90;;;;;;10343032;28;20053;-77
2023/01/01 09:06:22;;;;;;;19.55;9.93;;;11.60;99.90;;;;;;10348731;28;20026;-76
2023/01/01 09:11:25;;;;;;;17.13;9.52;;;11.90;99.90;;;;;;10346351;28;20035;-78
2023/01/01 09:16:26;;;;;;;24.73;11.40;;;12.20;99.90;;;;;;10358121;28;20034;-77
2023/01/01 09:21:26;;;;;;;19.90;11.00;;;12.60;99.90;;;;;;10358555;28;20045;-77
2023/01/01 09:26:27;;;;;;;18.65;9.65;;;12.80;99.90;;;;;;10357847;28;20903;-77
2023/01/01 09:31:27;;;;;;;21.05;11.18;;;12.90;99.90;;;;;;10358960;28;20040;-79
2023/01/01 09:36:30;;;;;;;17.15;9.02;;;13.10;98.80;;;;;;10360130;28;20041;-77
2023/01/01 09:41:36;;;;;;;23.80;11.10;;;13.30;99.10;;;;;;10357627;28;20062;-76
2023/01/01 09:46:37;;;;;;;25.55;13.00;;;13.60;98.50;;;;;;10357654;28;20029;-76
2023/01/01 09:51:40;;;;;;;17.35;9.10;;;13.70;97.60;;;;;;10357239;28;20034;-78
2023/01/01 09:56:44;;;;;;;18.63;9.48;;;13.90;95.40;;;;;;10358218;28;20085;-79
2023/01/01 10:01:56;;;;;;;19.83;10.05;;;14.10;95.50;;;;;;10354064;28;20046;-77
2023/01/01 10:06:56;;;;;;;14.40;9.18;;;14.20;93.70;;;;;;10339794;28;20972;-77
2023/01/01 10:12:05;;;;;;;19.42;10.45;;;14.40;93.40;;;;;;10357784;28;20032;-77
2023/01/01 10:17:16;;;;;;;19.30;10.75;;;14.50;93.70;;;;;;10359117;28;20363;-77
2023/01/01 10:22:25;;;;;;;16.02;8.85;;;14.80;92.30;;;;;;10359383;28;20124;-79
2023/01/01 10:27:42;;;;;;;15.25;6.82;;;15.00;91.80;;;;;;10366533;28;20026;-78
2023/01/01 10:32:47;;;;;;;13.02;7.20;;;15.10;89.10;;;;;;10358822;28;20060;-76
2023/01/01 10:37:48;;;;;;;9.57;5.75;;;15.30;90.10;;;;;;10362409;28;20073;-76
2023/01/01 10:42:54;;;;;;;9.98;5.50;;;15.50;89.80;;;;;;10355559;28;20030;-77
2023/01/01 10:48:12;;;;;;;10.55;6.25;;;15.60;86.80;;;;;;10358408;28;20441;-77
2023/01/01 10:53:48;;;;;;;9.20;5.57;;;15.90;86.00;;;;;;10362164;28;20180;-77
2023/01/01 10:58:57;;;;;;;10.30;6.05;;;16.00;84.50;;;;;;10364218;28;20046;-77
2023/01/01 11:03:59;;;;;;;11.18;6.40;;;16.00;84.30;;;;;;10355585;28;20040;-79
2023/01/01 11:09:03;;;;;;;11.60;6.60;;;15.90;84.20;;;;;;10362411;28;20057;-78
2023/01/01 11:14:04;;;;;;;9.57;5.80;;;15.80;85.10;;;;;;10363240;28;20025;-76
2023/01/01 11:19:07;;;;;;;11.57;6.55;;;15.80;84.90;;;;;;10353794;28;20128;-78
2023/01/01 11:24:20;;;;;;;12.30;5.80;;;15.90;85.10;;;;;;10358600;28;20088;-77
2023/01/01 11:29:28;;;;;;;11.48;5.95;;;15.90;84.60;;;;;;10354784;28;20042;-77
2023/01/01 11:34:34;;;;;;;9.85;5.60;;;16.10;85.20;;;;;;10349572;28;20056;-77
2023/01/01 11:39:36;;;;;;;;;;;16.30;83.40;;;;;;10363487;28;20104;-77
2023/01/01 11:44:41;;;;;;;11.48;6.38;;;16.50;83.60;;;;;;10363569;28;19911;-77
2023/01/01 11:49:42;;;;;;;9.20;5.80;;;16.40;83.10;;;;;;10358170;28;20084;-77
2023/01/01 11:54:45;;;;;;;11.00;6.15;;;16.20;82.90;;;;;;10350396;28;20104;-77
2023/01/01 11:59:53;;;;;;;12.13;6.32;;;15.80;83.30;;;;;;10353224;28;20080;-78
2023/01/01 12:05:07;;;;;;;12.93;7.43;;;15.70;84.80;;;;;;10362073;28;20036;-78
2023/01/01 12:10:21;;;;;;;13.02;7.53;;;15.70;85.40;;;;;;10358588;28;20053;-78
2023/01/01 12:15:49;;;;;;;15.73;6.18;;;15.70;85.10;;;;;;10361688;28;20592;-78
2023/01/01 12:21:11;;;;;;;12.80;6.35;;;15.70;84.60;;;;;;10343444;28;20080;-77
2023/01/01 12:26:25;;;;;;;23.98;11.75;;;15.70;84.40;;;;;;10359539;28;20429;-77
2023/01/01 12:31:59;;;;;;;13.98;7.45;;;15.60;84.10;;;;;;10349642;28;20034;-77
2023/01/01 12:37:21;;;;;;;14.60;5.75;;;15.40;84.80;;;;;;10360636;28;20030;-78
2023/01/01 12:42:32;;;;;;;10.63;6.40;;;15.30;85.70;;;;;;10351882;28;20485;-78
2023/01/01 12:47:44;;;;;;;16.73;8.30;;;15.40;86.40;;;;;;10360566;28;20040;-77
2023/01/01 12:52:48;;;;;;;15.80;8.68;;;15.40;86.00;;;;;;10355701;28;20069;-76
2023/01/01 12:58:08;;;;;;;11.70;6.95;;;15.40;86.30;;;;;;10352123;28;20147;-78
2023/01/01 13:03:25;;;;;;;14.57;8.50;;;15.40;85.60;;;;;;10363427;28;20386;-77
2023/01/01 13:08:26;;;;;;;15.25;8.43;;;15.40;86.20;;;;;;10360052;28;20050;-78
2023/01/01 13:13:26;;;;;;;13.93;7.72;;;15.40;86.50;;;;;;10360192;28;20032;-78
2023/01/01 13:18:32;;;;;;;10.57;6.07;;;15.30;87.00;;;;;;10360266;28;20440;-77
2023/01/01 13:23:37;;;;;;;11.13;6.07;;;15.30;86.90;;;;;;10360667;28;20101;-77
2023/01/01 13:28:37;;;;;;;12.60;6.63;;;15.20;86.50;;;;;;10360294;28;20061;-78
2023/01/01 13:33:38;;;;;;;14.98;6.55;;;15.10;87.20;;;;;;10360151;28;20105;-77
2023/01/01 13:38:44;;;;;;;11.80;6.60;;;14.90;87.90;;;;;;10359396;28;20075;-76
2023/01/01 13:43:45;;;;;;;12.55;6.63;;;14.80;88.20;;;;;;10360050;28;20585;-77
2023/01/01 13:49:14;;;;;;;15.02;6.88;;;14.80;88.30;;;;;;10358882;28;20098;-78
2023/01/01 13:54:46;;;;;;;12.50;6.80;;;14.60;88.10;;;;;;10360556;28;20026;-77
2023/01/01 14:00:00;;;;;;;12.82;6.45;;;14.50;88.50;;;;;;10358555;28;20045;-77
2023/01/01 14:05:01;;;;;;;12.90;6.38;;;14.30;88.70;;;;;;10367261;28;20022;-77
2023/01/01 14:10:15;;;;;;;15.18;7.28;;;14.10;89.40;;;;;;10366246;28;20575;-77
2023/01/01 14:15:23;;;;;;;24.00;12.00;;;14.00;89.80;;;;;;10367669;28;20034;-78
2023/01/01 14:20:43;;;;;;;32.65;15.30;;;13.80;90.20;;;;;;10366105;28;20025;-76
2023/01/01 14:25:44;;;;;;;35.78;18.35;;;13.70;90.40;;;;;;10367431;28;20061;-76
2023/01/01 14:30:45;;;;;;;58.50;25.17;;;13.60;90.70;;;;;;10365609;28;20449;-77
2023/01/01 14:36:24;;;;;;;55.33;23.50;;;13.50;90.80;;;;;;10366537;28;20109;-77
2023/01/01 14:41:32;;;;;;;63.33;22.00;;;13.40;90.90;;;;;;10347501;28;20030;-76
2023/01/01 14:46:39;;;;;;;31.20;14.13;;;13.20;91.10;;;;;;10365580;28;20045;-77
2023/01/01 14:51:43;;;;;;;33.00;15.57;;;13.10;91.60;;;;;;10365516;28;20069;-78
2023/01/01 14:56:48;;;;;;;39.10;17.40;;;12.90;92.00;;;;;;10364699;28;20030;-76
2023/01/01 15:02:22;;;;;;;38.47;16.13;;;12.80;92.60;;;;;;10364435;28;20033;-77
2023/01/01 15:07:24;;;;;;;38.75;18.08;;;12.70;92.50;;;;;;10356328;28;20081;-77
2023/01/01 15:12:25;;;;;;;44.35;21.73;;;12.50;93.00;;;;;;10363941;28;20045;-77
2023/01/01 15:17:26;;;;;;;54.40;23.92;;;12.40;93.40;;;;;;10363724;28;20021;-77
2023/01/01 15:22:31;;;;;;;43.05;20.42;;;12.30;93.70;;;;;;10363936;28;20441;-77
2023/01/01 15:27:35;;;;;;;47.27;27.17;;;12.20;94.10;;;;;;10358953;28;20066;-79
2023/01/01 15:32:37;;;;;;;89.15;37.55;;;12.10;94.50;;;;;;10360518;28;20265;-77
2023/01/01 15:37:47;;;;;;;89.07;42.33;;;12.00;94.90;;;;;;10359070;28;20030;-76
2023/01/01 15:42:53;;;;;;;96.65;39.80;;;11.80;95.50;;;;;;10355010;28;20034;-78
2023/01/01 15:48:15;;;;;;;58.13;26.80;;;11.70;96.40;;;;;;10354159;28;20034;-77
2023/01/01 15:53:21;;;;;;;39.03;16.90;;;11.70;97.20;;;;;;10373226;28;20029;-77
2023/01/01 15:58:58;;;;;;;32.72;15.80;;;11.70;98.30;;;;;;10367002;28;20255;-77
2023/01/01 16:04:16;;;;;;;28.30;14.57;;;11.80;99.20;;;;;;10328040;28;20371;-76
2023/01/01 16:09:18;;;;;;;61.30;28.23;;;11.80;99.90;;;;;;10376223;28;20064;-78
2023/01/01 16:14:19;;;;;;;31.42;15.82;;;11.80;99.90;;;;;;10350925;28;20108;-76
2023/01/01 16:19:21;;;;;;;26.50;13.05;;;11.70;99.90;;;;;;10360302;28;20128;-77
2023/01/01 16:24:21;;;;;;;25.33;12.40;;;11.70;99.90;;;;;;10359407;28;20622;-76
2023/01/01 16:29:22;;;;;;;24.77;12.93;;;11.70;99.90;;;;;;10370360;28;20041;-76
2023/01/01 16:34:23;;;;;;;30.42;13.82;;;11.70;99.90;;;;;;10365265;28;20030;-76
2023/01/01 16:39:23;;;;;;;30.35;14.05;;;11.70;99.90;;;;;;10365364;28;20036;-77
2023/01/01 16:44:24;;;;;;;25.17;12.88;;;11.70;99.90;;;;;;10366987;28;20100;-76
2023/01/01 16:49:24;;;;;;;24.63;12.15;;;11.70;99.90;;;;;;10364611;28;20045;-77
2023/01/01 16:54:25;;;;;;;25.55;13.60;;;11.70;99.90;;;;;;10366310;28;20367;-77
2023/01/01 16:59:25;;;;;;;25.50;13.63;;;11.70;99.90;;;;;;10368111;28;20061;-77
2023/01/01 17:04:27;;;;;;;28.33;13.52;;;11.60;99.90;;;;;;10358130;28;20033;-77
2023/01/01 17:09:27;;;;;;;30.90;15.77;;;11.60;99.90;;;;;;10369240;28;20129;-76
2023/01/01 17:14:28;;;;;;;26.15;14.10;;;11.60;99.90;;;;;;10361623;28;20106;-79
2023/01/01 17:19:29;;;;;;;26.02;13.10;;;11.60;99.90;;;;;;10357742;28;20049;-79
2023/01/01 17:24:29;;;;;;;27.60;14.55;;;11.50;99.90;;;;;;10361572;28;20044;-78
2023/01/01 17:29:30;;;;;;;29.52;15.02;;;11.50;99.90;;;;;;10374322;28;20084;-79
2023/01/01 17:34:30;;;;;;;33.85;18.55;;;11.40;99.90;;;;;;10358154;28;20033;-76
2023/01/01 17:39:31;;;;;;;35.08;19.23;;;11.40;99.90;;;;;;10387665;28;20113;-77
2023/01/01 17:44:32;;;;;;;51.28;27.05;;;11.30;99.90;;;;;;10376562;28;20037;-76
2023/01/01 17:49:33;;;;;;;88.85;45.40;;;11.10;99.90;;;;;;10363581;28;20066;-77
2023/01/01 17:54:33;;;;;;;70.70;40.65;;;10.90;99.90;;;;;;10365779;28;20034;-77
2023/01/01 17:59:34;;;;;;;65.90;37.25;;;10.70;99.90;;;;;;10364628;28;20033;-77
2023/01/01 18:04:34;;;;;;;72.68;39.97;;;10.70;99.90;;;;;;10358981;28;20025;-77
2023/01/01 18:09:36;;;;;;;48.33;25.13;;;10.70;99.90;;;;;;10363454;28;20060;-78
2023/01/01 18:14:37;;;;;;;39.78;17.75;;;10.70;99.90;;;;;;10354570;28;20029;-78
2023/01/01 18:19:37;;;;;;;24.77;13.52;;;10.70;99.90;;;;;;10360127;28;20030;-76
2023/01/01 18:24:38;;;;;;;27.27;14.57;;;10.70;99.90;;;;;;10363391;28;20040;-76
2023/01/01 18:29:39;;;;;;;60.33;30.77;;;10.60;99.90;;;;;;10378584;28;20147;-76
2023/01/01 18:34:39;;;;;;;48.55;26.30;;;10.60;99.90;;;;;;10359281;28;20034;-76
2023/01/01 18:39:41;;;;;;;47.88;24.83;;;10.50;99.90;;;;;;10359966;28;20030;-78
2023/01/01 18:44:42;;;;;;;58.03;28.48;;;10.50;99.90;;;;;;10445522;23;20064;-76
2023/01/01 18:49:52;;;;;;;52.72;25.90;;;10.50;99.90;;;;;;10449120;28;20400;-77
2023/01/01 18:55:00;;;;;;;61.92;30.00;;;10.40;99.90;;;;;;10446500;28;20037;-76
2023/01/01 19:00:20;;;;;;;70.83;36.07;;;10.30;99.90;;;;;;10440495;28;20155;-76
2023/01/01 19:05:29;;;;;;;65.40;32.97;;;10.30;99.90;;;;;;10444432;28;20726;-78
2023/01/01 19:10:41;;;;;;;53.30;24.83;;;10.20;99.90;;;;;;10454819;28;20504;-77
2023/01/01 19:15:59;;;;;;;49.83;24.03;;;10.20;99.90;;;;;;10439187;28;20032;-78
2023/01/01 19:21:11;;;;;;;49.30;22.23;;;10.10;99.90;;;;;;10440115;28;20440;-76
2023/01/01 19:26:22;;;;;;;45.17;22.93;;;10.10;99.90;;;;;;10426079;28;20456;-77
2023/01/01 19:31:23;;;;;;;75.33;37.80;;;10.00;99.90;;;;;;10444471;28;20045;-80
2023/01/01 19:36:23;;;;;;;57.07;27.73;;;10.00;99.90;;;;;;10436791;28;20025;-77
2023/01/01 19:41:24;;;;;;;62.47;30.27;;;10.00;99.90;;;;;;10445207;28;20060;-78
2023/01/01 19:46:25;;;;;;;70.07;34.73;;;10.00;99.90;;;;;;10444982;28;20032;-79
2023/01/01 19:51:25;;;;;;;45.77;23.07;;;10.00;99.90;;;;;;10439982;28;20041;-79
2023/01/01 19:56:26;;;;;;;49.77;22.33;;;9.90;99.90;;;;;;10443406;28;20033;-76
2023/01/01 20:01:27;;;;;;;53.23;25.53;;;9.90;99.90;;;;;;10438988;28;20040;-76
2023/01/01 20:06:29;;;;;;;75.00;34.10;;;9.90;99.90;;;;;;10440887;28;20112;-76
2023/01/01 20:11:30;;;;;;;65.40;32.37;;;9.80;99.90;;;;;;10441409;28;20045;-77
2023/01/01 20:16:33;;;;;;;69.63;33.30;;;9.80;99.90;;;;;;10433148;28;20036;-77
2023/01/01 20:26:55;;;;;;;89.10;41.80;;;9.70;99.90;;;;;;10435050;28;20417;-78
2023/01/01 20:31:57;;;;;;;74.17;34.67;;;9.60;99.90;;;;;;10441332;28;20563;-79
2023/01/01 20:42:18;;;;;;;73.70;31.97;;;9.50;99.90;;;;;;10441129;28;20053;-77
2023/01/01 20:47:19;;;;;;;75.33;30.77;;;9.40;99.90;;;;;;10439525;28;20040;-77
2023/01/01 20:52:20;;;;;;;74.37;32.10;;;9.30;99.90;;;;;;10436789;28;20064;-77
2023/01/01 20:57:20;;;;;;;168.93;70.93;;;9.10;99.90;;;;;;10428519;28;20056;-77
2023/01/01 21:02:21;;;;;;;116.93;52.27;;;9.20;99.90;;;;;;10432623;28;20029;-77
2023/01/01 21:07:21;;;;;;;108.83;46.87;;;9.10;99.90;;;;;;10437129;28;20033;-78
2023/01/01 21:12:22;;;;;;;61.40;30.50;;;9.10;99.90;;;;;;10439839;28;20071;-78
2023/01/01 21:17:23;;;;;;;52.50;23.00;;;9.10;99.90;;;;;;10434524;28;20044;-77
2023/01/01 21:22:25;;;;;;;53.43;23.53;;;9.00;99.90;;;;;;10440355;28;20043;-77
2023/01/01 21:27:32;;;;;;;49.83;23.43;;;9.00;99.90;;;;;;10413486;28;20552;-77
2023/01/01 21:32:38;;;;;;;50.73;23.37;;;9.00;99.90;;;;;;10433225;28;20045;-75
2023/01/01 21:37:51;;;;;;;42.70;21.35;;;9.00;99.90;;;;;;10435669;28;20389;-76
2023/01/01 21:42:54;;;;;;;47.57;22.03;;;8.90;99.90;;;;;;10441395;28;20045;-79
2023/01/01 21:48:08;;;;;;;44.43;20.13;;;8.90;99.90;;;;;;10434081;28;20045;-78
2023/01/01 21:53:21;;;;;;;38.87;23.37;;;9.00;99.90;;;;;;10434472;28;20855;-77
2023/01/01 22:04:22;;;;;;;55.50;27.20;;;8.90;99.90;;;;;;10437557;28;20033;-79
2023/01/01 22:09:34;;;;;;;62.77;29.77;;;9.00;99.90;;;;;;10433507;28;20545;-76
2023/01/01 22:14:38;;;;;;;61.43;30.63;;;8.90;99.90;;;;;;10438187;28;20406;-76
2023/01/01 22:19:41;;;;;;;58.53;30.33;;;8.90;99.90;;;;;;10438305;28;20036;-77
2023/01/01 22:25:16;;;;;;;49.83;26.53;;;8.80;99.90;;;;;;10445042;28;20036;-77
2023/01/01 22:30:16;;;;;;;49.13;25.07;;;8.80;99.90;;;;;;10435319;28;20649;-76
2023/01/01 22:35:27;;;;;;;45.63;22.47;;;8.70;99.90;;;;;;10445597;28;20036;-77
2023/01/01 22:40:32;;;;;;;39.83;21.47;;;8.60;99.90;;;;;;10445625;28;20548;-76
2023/01/01 22:45:37;;;;;;;56.03;23.07;;;8.50;99.90;;;;;;10436315;28;20120;-78
2023/01/01 22:50:38;;;;;;;38.55;19.25;;;8.40;99.90;;;;;;10443296;28;20075;-77
2023/01/01 22:55:39;;;;;;;38.07;20.20;;;8.40;99.90;;;;;;10434072;28;20105;-77
2023/01/01 23:00:40;;;;;;;36.03;19.70;;;8.40;99.90;;;;;;10444816;28;20033;-78
2023/01/01 23:05:41;;;;;;;32.40;16.10;;;8.40;99.90;;;;;;10440605;28;20060;-78
2023/01/01 23:10:41;;;;;;;32.07;16.97;;;8.40;99.90;;;;;;10440176;28;20171;-77
2023/01/01 23:16:01;;;;;;;37.73;18.30;;;8.40;99.90;;;;;;10436954;28;20602;-76
2023/01/01 23:21:07;;;;;;;41.77;21.07;;;8.30;99.90;;;;;;10423761;28;20068;-77
2023/01/01 23:26:08;;;;;;;41.38;22.80;;;8.30;99.90;;;;;;10438609;28;20036;-78
2023/01/01 23:31:11;;;;;;;40.67;21.17;;;8.30;99.90;;;;;;10431226;28;20039;-77
2023/01/01 23:36:12;;;;;;;39.10;20.87;;;8.30;99.90;;;;;;10440142;28;20114;-78
2023/01/01 23:41:12;;;;;;;39.57;21.17;;;8.30;99.90;;;;;;10435431;28;20063;-77
2023/01/01 23:46:14;;;;;;;37.77;18.20;;;8.20;99.90;;;;;;10439687;28;20473;-76
2023/01/01 23:51:15;;;;;;;35.10;17.73;;;8.20;99.90;;;;;;10439606;28;20051;-77
2023/01/01 23:56:16;;;;;;;38.47;19.33;;;8.20;99.90;;;;;;10432063;28;20032;-79
